FDX6471 KATL-KMEM
Flight info
| Callsign | FDX6471 |
|---|---|
| Flight time | 0h 56m |
| Altitude | 35000 |
| Route | NASSA2 CHOOK WASER VANZE3 |
| Aircraft | B738/M-SDE2E3FGHIRWXY/LB1 |
Departure
| Time | 2026-05-06 02:07 |
|---|---|
| Airport | Hartsfield Jackson Atlanta International Airport (KATL) |
Arrival
| Time | 2026-05-06 03:04 |
|---|---|
| Airport | Memphis International Airport (KMEM) |
| Time | Latitude | Longitude | Altitude | Speed | Heading |
|---|---|---|---|---|---|
| 2026-05-06 01:49 | 33.65267 | -84.41219 | 1005 ft | 0 kts | 37° |
| 2026-05-06 01:57 | 33.65257 | -84.41229 | 1005 ft | 2 kts | 45° |
| 2026-05-06 01:58 | 33.65246 | -84.41243 | 1006 ft | 2 kts | 51° |
| 2026-05-06 01:58 | 33.65236 | -84.41259 | 1005 ft | 2 kts | 62° |
| 2026-05-06 01:58 | 33.65230 | -84.41277 | 1005 ft | 2 kts | 75° |
| 2026-05-06 01:58 | 33.65227 | -84.41297 | 1005 ft | 2 kts | 88° |
| 2026-05-06 01:59 | 33.65228 | -84.41317 | 1005 ft | 2 kts | 101° |
| 2026-05-06 01:59 | 33.65232 | -84.41336 | 1005 ft | 2 kts | 111° |
| 2026-05-06 01:59 | 33.65239 | -84.41354 | 1005 ft | 2 kts | 121° |
| 2026-05-06 01:59 | 33.65247 | -84.41367 | 1005 ft | 1 kts | 130° |
| 2026-05-06 02:00 | 33.65249 | -84.41370 | 1005 ft | 0 kts | 132° |
| 2026-05-06 02:01 | 33.65235 | -84.41362 | 1003 ft | 8 kts | 161° |
| 2026-05-06 02:02 | 33.65166 | -84.41355 | 1005 ft | 13 kts | 174° |
| 2026-05-06 02:02 | 33.65120 | -84.41302 | 1005 ft | 8 kts | 95° |
| 2026-05-06 02:02 | 33.65119 | -84.41213 | 1005 ft | 14 kts | 90° |
| 2026-05-06 02:02 | 33.65119 | -84.41062 | 1005 ft | 21 kts | 90° |
| 2026-05-06 02:03 | 33.65057 | -84.40964 | 1006 ft | 16 kts | 175° |
| 2026-05-06 02:03 | 33.64934 | -84.40963 | 1005 ft | 19 kts | 181° |
| 2026-05-06 02:03 | 33.64846 | -84.40903 | 1005 ft | 10 kts | 102° |
| 2026-05-06 02:03 | 33.64844 | -84.40817 | 1005 ft | 12 kts | 91° |
| 2026-05-06 02:04 | 33.64844 | -84.40705 | 1005 ft | 15 kts | 90° |
| 2026-05-06 02:04 | 33.64827 | -84.40591 | 1005 ft | 13 kts | 130° |
| 2026-05-06 02:04 | 33.64779 | -84.40569 | 1005 ft | 0 kts | 175° |
| 2026-05-06 02:04 | 33.64737 | -84.40567 | 1004 ft | 14 kts | 181° |
| 2026-05-06 02:05 | 33.64681 | -84.40622 | 1003 ft | 11 kts | 265° |
| 2026-05-06 02:05 | 33.64681 | -84.40638 | 1003 ft | 0 kts | 270° |
| 2026-05-06 02:06 | 33.64681 | -84.40709 | 1003 ft | 29 kts | 269° |
| 2026-05-06 02:07 | 33.64678 | -84.41283 | 1007 ft | 107 kts | 269° |
| 2026-05-06 02:07 | 33.64677 | -84.42462 | 1007 ft | 173 kts | 270° |
| 2026-05-06 02:07 | 33.64689 | -84.44022 | 1584 ft | 192 kts | 268° |
| 2026-05-06 02:07 | 33.64699 | -84.45607 | 2709 ft | 182 kts | 264° |
| 2026-05-06 02:08 | 33.64830 | -84.47190 | 3363 ft | 203 kts | 276° |
| 2026-05-06 02:08 | 33.65164 | -84.48936 | 3544 ft | 226 kts | 278° |
| 2026-05-06 02:08 | 33.65549 | -84.50833 | 3883 ft | 239 kts | 278° |
| 2026-05-06 02:08 | 33.65937 | -84.52785 | 4433 ft | 241 kts | 278° |
| 2026-05-06 02:09 | 33.66318 | -84.54744 | 5064 ft | 240 kts | 278° |
| 2026-05-06 02:09 | 33.66692 | -84.56687 | 5680 ft | 238 kts | 278° |
| 2026-05-06 02:09 | 33.67054 | -84.58597 | 6336 ft | 234 kts | 277° |
| 2026-05-06 02:09 | 33.67388 | -84.60519 | 6807 ft | 237 kts | 277° |
| 2026-05-06 02:10 | 33.67717 | -84.62472 | 7301 ft | 239 kts | 277° |
| 2026-05-06 02:10 | 33.68045 | -84.64426 | 7846 ft | 240 kts | 278° |
| 2026-05-06 02:10 | 33.68383 | -84.66439 | 8126 ft | 255 kts | 278° |
| 2026-05-06 02:10 | 33.68743 | -84.68572 | 8559 ft | 265 kts | 278° |
| 2026-05-06 02:11 | 33.69111 | -84.70744 | 9331 ft | 265 kts | 279° |
| 2026-05-06 02:11 | 33.69479 | -84.72919 | 10099 ft | 266 kts | 279° |
| 2026-05-06 02:11 | 33.69854 | -84.75148 | 10485 ft | 282 kts | 279° |
| 2026-05-06 02:11 | 33.70104 | -84.77573 | 10637 ft | 303 kts | 271° |
| 2026-05-06 02:12 | 33.70128 | -84.80188 | 10794 ft | 323 kts | 269° |
| 2026-05-06 02:12 | 33.70088 | -84.82903 | 11374 ft | 326 kts | 269° |
| 2026-05-06 02:12 | 33.70044 | -84.85649 | 11971 ft | 330 kts | 269° |
| 2026-05-06 02:12 | 33.70009 | -84.88412 | 12601 ft | 332 kts | 270° |
| 2026-05-06 02:13 | 33.69984 | -84.91198 | 13231 ft | 334 kts | 270° |
| 2026-05-06 02:13 | 33.69967 | -84.93996 | 13893 ft | 336 kts | 271° |
| 2026-05-06 02:13 | 33.69955 | -84.96810 | 14480 ft | 338 kts | 271° |
| 2026-05-06 02:13 | 33.69945 | -84.99635 | 15078 ft | 339 kts | 271° |
| 2026-05-06 02:14 | 33.69936 | -85.02469 | 15681 ft | 340 kts | 271° |
| 2026-05-06 02:14 | 33.69927 | -85.05307 | 16294 ft | 340 kts | 271° |
| 2026-05-06 02:14 | 33.69917 | -85.08150 | 16918 ft | 340 kts | 271° |
| 2026-05-06 02:14 | 33.69907 | -85.10992 | 17558 ft | 340 kts | 271° |
| 2026-05-06 02:15 | 33.69897 | -85.13825 | 18222 ft | 339 kts | 271° |
| 2026-05-06 02:15 | 33.69886 | -85.16653 | 18786 ft | 338 kts | 271° |
| 2026-05-06 02:15 | 33.69873 | -85.19472 | 19357 ft | 337 kts | 271° |
| 2026-05-06 02:15 | 33.69864 | -85.22280 | 19934 ft | 336 kts | 272° |
| 2026-05-06 02:16 | 33.70025 | -85.25071 | 20521 ft | 334 kts | 277° |
| 2026-05-06 02:16 | 33.70324 | -85.27825 | 21118 ft | 332 kts | 279° |
| 2026-05-06 02:16 | 33.70662 | -85.30555 | 21725 ft | 329 kts | 279° |
| 2026-05-06 02:16 | 33.71003 | -85.33263 | 22347 ft | 327 kts | 279° |
| 2026-05-06 02:17 | 33.71334 | -85.35947 | 22982 ft | 324 kts | 279° |
| 2026-05-06 02:17 | 33.71622 | -85.38619 | 23608 ft | 321 kts | 275° |
| 2026-05-06 02:17 | 33.71580 | -85.41288 | 24161 ft | 318 kts | 270° |
| 2026-05-06 02:17 | 33.71460 | -85.43919 | 24705 ft | 313 kts | 270° |
| 2026-05-06 02:18 | 33.71338 | -85.46511 | 25275 ft | 309 kts | 270° |
| 2026-05-06 02:18 | 33.71220 | -85.49068 | 25836 ft | 304 kts | 270° |
| 2026-05-06 02:18 | 33.71106 | -85.51575 | 26413 ft | 298 kts | 271° |
| 2026-05-06 02:18 | 33.70998 | -85.53995 | 26990 ft | 291 kts | 271° |
| 2026-05-06 02:19 | 33.70892 | -85.56439 | 27225 ft | 298 kts | 271° |
| 2026-05-06 02:19 | 33.70785 | -85.58961 | 27308 ft | 307 kts | 271° |
| 2026-05-06 02:19 | 33.70674 | -85.61564 | 27388 ft | 317 kts | 271° |
| 2026-05-06 02:19 | 33.70559 | -85.64250 | 27473 ft | 327 kts | 271° |
| 2026-05-06 02:20 | 33.70317 | -85.69860 | 27633 ft | 346 kts | 271° |
| 2026-05-06 02:20 | 33.70188 | -85.72779 | 27694 ft | 354 kts | 271° |
| 2026-05-06 02:20 | 33.70056 | -85.75761 | 27787 ft | 362 kts | 270° |
| 2026-05-06 02:21 | 33.69920 | -85.78816 | 27847 ft | 370 kts | 270° |
| 2026-05-06 02:21 | 33.69780 | -85.81938 | 27914 ft | 378 kts | 270° |
| 2026-05-06 02:21 | 33.69636 | -85.85119 | 27980 ft | 385 kts | 270° |
| 2026-05-06 02:22 | 33.69339 | -85.91612 | 28522 ft | 385 kts | 270° |
| 2026-05-06 02:22 | 33.69191 | -85.94791 | 29136 ft | 378 kts | 270° |
| 2026-05-06 02:22 | 33.69046 | -85.97914 | 29819 ft | 370 kts | 271° |
| 2026-05-06 02:22 | 33.68904 | -86.00966 | 30416 ft | 362 kts | 271° |
| 2026-05-06 02:23 | 33.68898 | -86.03946 | 30978 ft | 351 kts | 277° |
| 2026-05-06 02:23 | 33.69179 | -86.06811 | 31553 ft | 341 kts | 283° |
| 2026-05-06 02:23 | 33.69665 | -86.09559 | 32168 ft | 332 kts | 283° |
| 2026-05-06 02:23 | 33.70153 | -86.12226 | 32779 ft | 323 kts | 284° |
| 2026-05-06 02:24 | 33.70630 | -86.14819 | 33391 ft | 313 kts | 283° |
| 2026-05-06 02:24 | 33.71088 | -86.17326 | 34023 ft | 302 kts | 283° |
| 2026-05-06 02:24 | 33.71530 | -86.19752 | 34485 ft | 295 kts | 283° |
| 2026-05-06 02:25 | 33.72422 | -86.24675 | 34489 ft | 307 kts | 283° |
| 2026-05-06 02:25 | 33.73337 | -86.29758 | 34564 ft | 316 kts | 283° |
| 2026-05-06 02:26 | 33.74273 | -86.34992 | 34646 ft | 325 kts | 283° |
| 2026-05-06 02:26 | 33.75232 | -86.40370 | 34718 ft | 333 kts | 283° |
| 2026-05-06 02:27 | 33.76211 | -86.45883 | 34807 ft | 341 kts | 283° |
| 2026-05-06 02:27 | 33.76706 | -86.48673 | 34946 ft | 342 kts | 283° |
| 2026-05-06 02:27 | 33.77203 | -86.51479 | 34976 ft | 345 kts | 283° |
| 2026-05-06 02:28 | 33.78208 | -86.57170 | 34992 ft | 351 kts | 283° |
| 2026-05-06 02:28 | 33.79228 | -86.62962 | 35000 ft | 358 kts | 283° |
| 2026-05-06 02:29 | 33.80265 | -86.68867 | 34991 ft | 364 kts | 282° |
| 2026-05-06 02:29 | 33.81315 | -86.74864 | 34996 ft | 369 kts | 282° |
| 2026-05-06 02:30 | 33.82375 | -86.80935 | 34989 ft | 373 kts | 282° |
| 2026-05-06 02:30 | 33.83434 | -86.87021 | 34986 ft | 376 kts | 282° |
| 2026-05-06 02:31 | 33.84503 | -86.93185 | 34976 ft | 377 kts | 282° |
| 2026-05-06 02:31 | 33.85573 | -86.99370 | 34970 ft | 378 kts | 282° |
| 2026-05-06 02:32 | 33.86639 | -87.05553 | 34967 ft | 378 kts | 282° |
| 2026-05-06 02:32 | 33.87701 | -87.11732 | 34961 ft | 377 kts | 282° |
| 2026-05-06 02:33 | 33.88759 | -87.17905 | 34973 ft | 376 kts | 282° |
| 2026-05-06 02:33 | 33.89108 | -87.19946 | 34974 ft | 376 kts | 282° |
| 2026-05-06 02:34 | 33.90856 | -87.30204 | 34975 ft | 374 kts | 282° |
| 2026-05-06 02:34 | 33.91897 | -87.36333 | 34971 ft | 374 kts | 282° |
| 2026-05-06 02:35 | 33.92950 | -87.42454 | 34967 ft | 373 kts | 284° |
| 2026-05-06 02:35 | 33.94752 | -87.48312 | 34961 ft | 375 kts | 294° |
| 2026-05-06 02:36 | 33.97345 | -87.53779 | 34939 ft | 377 kts | 296° |
| 2026-05-06 02:36 | 33.99977 | -87.59224 | 34943 ft | 376 kts | 296° |
| 2026-05-06 02:36 | 34.01294 | -87.61964 | 34796 ft | 380 kts | 296° |
| 2026-05-06 02:37 | 34.02626 | -87.64747 | 34393 ft | 384 kts | 296° |
| 2026-05-06 02:37 | 34.03954 | -87.67526 | 34035 ft | 382 kts | 296° |
| 2026-05-06 02:37 | 34.05275 | -87.70292 | 33682 ft | 379 kts | 296° |
| 2026-05-06 02:37 | 34.06594 | -87.73058 | 33349 ft | 382 kts | 296° |
| 2026-05-06 02:38 | 34.07917 | -87.75838 | 33127 ft | 383 kts | 296° |
| 2026-05-06 02:38 | 34.09244 | -87.78628 | 32864 ft | 384 kts | 296° |
| 2026-05-06 02:38 | 34.10125 | -87.80482 | 32710 ft | 385 kts | 296° |
| 2026-05-06 02:38 | 34.11912 | -87.84245 | 32369 ft | 388 kts | 296° |
| 2026-05-06 02:39 | 34.12802 | -87.86120 | 32202 ft | 389 kts | 296° |
| 2026-05-06 02:39 | 34.14146 | -87.88955 | 31960 ft | 390 kts | 296° |
| 2026-05-06 02:39 | 34.15499 | -87.91808 | 31663 ft | 393 kts | 296° |
| 2026-05-06 02:39 | 34.16859 | -87.94681 | 31381 ft | 395 kts | 296° |
| 2026-05-06 02:40 | 34.18225 | -87.97567 | 31089 ft | 397 kts | 296° |
| 2026-05-06 02:40 | 34.19599 | -88.00472 | 30819 ft | 399 kts | 296° |
| 2026-05-06 02:40 | 34.20974 | -88.03386 | 30535 ft | 400 kts | 296° |
| 2026-05-06 02:40 | 34.22330 | -88.06336 | 30259 ft | 402 kts | 296° |
| 2026-05-06 02:41 | 34.23669 | -88.09308 | 29994 ft | 404 kts | 295° |
| 2026-05-06 02:41 | 34.25007 | -88.12298 | 29675 ft | 405 kts | 295° |
| 2026-05-06 02:41 | 34.26349 | -88.15299 | 29358 ft | 407 kts | 295° |
| 2026-05-06 02:41 | 34.27698 | -88.18315 | 29040 ft | 408 kts | 295° |
| 2026-05-06 02:42 | 34.29048 | -88.21330 | 28735 ft | 409 kts | 296° |
| 2026-05-06 02:42 | 34.30407 | -88.24361 | 28421 ft | 410 kts | 296° |
| 2026-05-06 02:42 | 34.31766 | -88.27395 | 28116 ft | 411 kts | 296° |
| 2026-05-06 02:42 | 34.33127 | -88.30432 | 27812 ft | 411 kts | 296° |
| 2026-05-06 02:43 | 34.34491 | -88.33480 | 27509 ft | 412 kts | 296° |
| 2026-05-06 02:43 | 34.35856 | -88.36531 | 27213 ft | 413 kts | 296° |
| 2026-05-06 02:43 | 34.37222 | -88.39587 | 26915 ft | 413 kts | 296° |
| 2026-05-06 02:43 | 34.38592 | -88.42655 | 26624 ft | 414 kts | 296° |
| 2026-05-06 02:44 | 34.39961 | -88.45725 | 26342 ft | 415 kts | 296° |
| 2026-05-06 02:44 | 34.41335 | -88.48807 | 26053 ft | 416 kts | 296° |
| 2026-05-06 02:44 | 34.42713 | -88.51901 | 25770 ft | 418 kts | 296° |
| 2026-05-06 02:44 | 34.44091 | -88.54999 | 25491 ft | 418 kts | 296° |
| 2026-05-06 02:45 | 34.45469 | -88.58099 | 25215 ft | 419 kts | 296° |
| 2026-05-06 02:45 | 34.46852 | -88.61212 | 24934 ft | 419 kts | 296° |
| 2026-05-06 02:45 | 34.48228 | -88.64313 | 24663 ft | 418 kts | 296° |
| 2026-05-06 02:45 | 34.49601 | -88.67410 | 24392 ft | 416 kts | 296° |
| 2026-05-06 02:46 | 34.50966 | -88.70491 | 24122 ft | 414 kts | 296° |
| 2026-05-06 02:46 | 34.52303 | -88.73511 | 23859 ft | 411 kts | 296° |
| 2026-05-06 02:46 | 34.53649 | -88.76556 | 23595 ft | 409 kts | 296° |
| 2026-05-06 02:46 | 34.54990 | -88.79591 | 23302 ft | 407 kts | 296° |
| 2026-05-06 02:47 | 34.56341 | -88.82651 | 22861 ft | 407 kts | 295° |
| 2026-05-06 02:47 | 34.57683 | -88.85696 | 21960 ft | 408 kts | 295° |
| 2026-05-06 02:47 | 34.58993 | -88.88669 | 21271 ft | 403 kts | 295° |
| 2026-05-06 02:47 | 34.60300 | -88.91637 | 20602 ft | 398 kts | 295° |
| 2026-05-06 02:48 | 34.61589 | -88.94565 | 20242 ft | 385 kts | 295° |
| 2026-05-06 02:48 | 34.62842 | -88.97416 | 19595 ft | 381 kts | 294° |
| 2026-05-06 02:48 | 34.64086 | -89.00254 | 18839 ft | 381 kts | 294° |
| 2026-05-06 02:48 | 34.65326 | -89.03082 | 18177 ft | 378 kts | 294° |
| 2026-05-06 02:49 | 34.66557 | -89.05888 | 17421 ft | 376 kts | 294° |
| 2026-05-06 02:49 | 34.67736 | -89.08722 | 16558 ft | 374 kts | 289° |
| 2026-05-06 02:49 | 34.68425 | -89.11746 | 15754 ft | 371 kts | 280° |
| 2026-05-06 02:49 | 34.68965 | -89.14803 | 14973 ft | 371 kts | 281° |
| 2026-05-06 02:50 | 34.69532 | -89.17834 | 14491 ft | 363 kts | 281° |
| 2026-05-06 02:50 | 34.70099 | -89.20798 | 13943 ft | 358 kts | 281° |
| 2026-05-06 02:50 | 34.70671 | -89.23768 | 12938 ft | 364 kts | 281° |
| 2026-05-06 02:50 | 34.71248 | -89.26765 | 12333 ft | 360 kts | 281° |
| 2026-05-06 02:51 | 34.71805 | -89.29655 | 12252 ft | 343 kts | 281° |
| 2026-05-06 02:51 | 34.72296 | -89.32421 | 12146 ft | 327 kts | 279° |
| 2026-05-06 02:51 | 34.72686 | -89.35079 | 12058 ft | 313 kts | 277° |
| 2026-05-06 02:51 | 34.73014 | -89.37633 | 11972 ft | 299 kts | 276° |
| 2026-05-06 02:52 | 34.73304 | -89.40090 | 11702 ft | 292 kts | 275° |
| 2026-05-06 02:52 | 34.73596 | -89.42595 | 10901 ft | 304 kts | 276° |
| 2026-05-06 02:52 | 34.73928 | -89.45155 | 10245 ft | 307 kts | 277° |
| 2026-05-06 02:52 | 34.74257 | -89.47694 | 9641 ft | 302 kts | 276° |
| 2026-05-06 02:53 | 34.74559 | -89.50209 | 8980 ft | 299 kts | 276° |
| 2026-05-06 02:53 | 34.74829 | -89.52699 | 8421 ft | 293 kts | 274° |
| 2026-05-06 02:53 | 34.75062 | -89.55138 | 7876 ft | 289 kts | 273° |
| 2026-05-06 02:53 | 34.75274 | -89.57545 | 7333 ft | 284 kts | 273° |
| 2026-05-06 02:54 | 34.75474 | -89.59920 | 6817 ft | 280 kts | 272° |
| 2026-05-06 02:54 | 34.75683 | -89.62261 | 6300 ft | 277 kts | 273° |
| 2026-05-06 02:54 | 34.75870 | -89.64578 | 5759 ft | 273 kts | 271° |
| 2026-05-06 02:54 | 34.75983 | -89.66871 | 5221 ft | 270 kts | 268° |
| 2026-05-06 02:55 | 34.76009 | -89.69134 | 4708 ft | 264 kts | 265° |
| 2026-05-06 02:55 | 34.75965 | -89.71325 | 4169 ft | 254 kts | 263° |
| 2026-05-06 02:55 | 34.75859 | -89.73435 | 3631 ft | 246 kts | 259° |
| 2026-05-06 02:55 | 34.75672 | -89.75463 | 3201 ft | 235 kts | 256° |
| 2026-05-06 02:56 | 34.75441 | -89.77329 | 3088 ft | 213 kts | 254° |
| 2026-05-06 02:56 | 34.75130 | -89.78995 | 3017 ft | 192 kts | 247° |
| 2026-05-06 02:56 | 34.74743 | -89.80474 | 2953 ft | 178 kts | 247° |
| 2026-05-06 02:56 | 34.74408 | -89.81869 | 2878 ft | 165 kts | 246° |
| 2026-05-06 02:57 | 34.74065 | -89.83146 | 2796 ft | 152 kts | 243° |
| 2026-05-06 02:57 | 34.73836 | -89.84369 | 2694 ft | 142 kts | 244° |
| 2026-05-06 02:57 | 34.73469 | -89.85483 | 2657 ft | 143 kts | 242° |
| 2026-05-06 02:57 | 34.73172 | -89.86645 | 2533 ft | 151 kts | 258° |
| 2026-05-06 02:58 | 34.73579 | -89.87898 | 2438 ft | 177 kts | 302° |
| 2026-05-06 02:58 | 34.74668 | -89.88753 | 2423 ft | 191 kts | 320° |
| 2026-05-06 02:58 | 34.75819 | -89.89573 | 2359 ft | 191 kts | 318° |
| 2026-05-06 02:58 | 34.76925 | -89.90432 | 2299 ft | 187 kts | 316° |
| 2026-05-06 02:59 | 34.78006 | -89.91290 | 2215 ft | 185 kts | 316° |
| 2026-05-06 02:59 | 34.79110 | -89.92161 | 2126 ft | 193 kts | 316° |
| 2026-05-06 02:59 | 34.80237 | -89.93052 | 2032 ft | 192 kts | 316° |
| 2026-05-06 02:59 | 34.81347 | -89.93924 | 2007 ft | 187 kts | 316° |
| 2026-05-06 03:00 | 34.82425 | -89.94800 | 2002 ft | 191 kts | 315° |
| 2026-05-06 03:00 | 34.83509 | -89.95726 | 2001 ft | 189 kts | 315° |
| 2026-05-06 03:00 | 34.84675 | -89.96488 | 1995 ft | 194 kts | 331° |
| 2026-05-06 03:00 | 34.85988 | -89.96932 | 1999 ft | 198 kts | 341° |
| 2026-05-06 03:01 | 34.87380 | -89.97062 | 1998 ft | 202 kts | 356° |
| 2026-05-06 03:01 | 34.88816 | -89.96982 | 2002 ft | 209 kts | 358° |
| 2026-05-06 03:01 | 34.90260 | -89.97028 | 2010 ft | 206 kts | 348° |
| 2026-05-06 03:01 | 34.91684 | -89.97209 | 1999 ft | 207 kts | 347° |
| 2026-05-06 03:02 | 34.93124 | -89.97324 | 2010 ft | 209 kts | 356° |
| 2026-05-06 03:02 | 34.94579 | -89.97237 | 1982 ft | 208 kts | 354° |
| 2026-05-06 03:02 | 34.96025 | -89.97320 | 1748 ft | 208 kts | 349° |
| 2026-05-06 03:02 | 34.97439 | -89.97453 | 1548 ft | 201 kts | 353° |
| 2026-05-06 03:03 | 34.98840 | -89.97518 | 1251 ft | 204 kts | 357° |
| 2026-05-06 03:03 | 35.00239 | -89.97502 | 919 ft | 198 kts | 356° |
| 2026-05-06 03:03 | 35.01589 | -89.97554 | 596 ft | 191 kts | 360° |
| 2026-05-06 03:03 | 35.02890 | -89.97570 | 350 ft | 182 kts | 358° |
| 2026-05-06 03:04 | 35.04048 | -89.97591 | 315 ft | 139 kts | 358° |
| 2026-05-06 03:04 | 35.04743 | -89.97601 | 294 ft | 54 kts | 359° |
| 2026-05-06 03:04 | 35.04863 | -89.97645 | 292 ft | 11 kts | 291° |
| 2026-05-06 03:04 | 35.04867 | -89.97690 | 292 ft | 0 kts | 272° |
| 2026-05-06 03:06 | 35.04867 | -89.97695 | 292 ft | 4 kts | 272° |
| 2026-05-06 03:06 | 35.04916 | -89.97755 | 287 ft | 19 kts | 354° |
| 2026-05-06 03:06 | 35.05088 | -89.97761 | 283 ft | 29 kts | 358° |
| 2026-05-06 03:06 | 35.05274 | -89.97764 | 283 ft | 26 kts | 357° |
| 2026-05-06 03:07 | 35.05456 | -89.97783 | 281 ft | 28 kts | 360° |
| 2026-05-06 03:07 | 35.05665 | -89.97784 | 277 ft | 32 kts | 360° |
| 2026-05-06 03:07 | 35.05850 | -89.97785 | 275 ft | 26 kts | 359° |
| 2026-05-06 03:07 | 35.05988 | -89.97741 | 273 ft | 16 kts | 77° |
| 2026-05-06 03:08 | 35.05969 | -89.97610 | 273 ft | 15 kts | 104° |
| 2026-05-06 03:08 | 35.05943 | -89.97486 | 277 ft | 15 kts | 98° |
| 2026-05-06 03:08 | 35.05939 | -89.97356 | 278 ft | 16 kts | 92° |
| 2026-05-06 03:08 | 35.05935 | -89.97205 | 276 ft | 19 kts | 91° |
| 2026-05-06 03:09 | 35.05930 | -89.97035 | 279 ft | 20 kts | 91° |
| 2026-05-06 03:09 | 35.05926 | -89.96869 | 281 ft | 20 kts | 91° |
| 2026-05-06 03:09 | 35.05922 | -89.96701 | 281 ft | 19 kts | 92° |
| 2026-05-06 03:09 | 35.05938 | -89.96570 | 289 ft | 12 kts | 50° |
| 2026-05-06 03:10 | 35.06002 | -89.96510 | 286 ft | 12 kts | 34° |
| 2026-05-06 03:10 | 35.06047 | -89.96425 | 285 ft | 10 kts | 88° |
| 2026-05-06 03:10 | 35.06056 | -89.96380 | 289 ft | 4 kts | 45° |
| 2026-05-06 03:10 | 35.06091 | -89.96374 | 284 ft | 8 kts | 3° |
| 2026-05-06 03:11 | 35.06115 | -89.96373 | 283 ft | 0 kts | 2° |
| 2026-05-06 03:11 | 35.06117 | -89.96373 | 283 ft | 1 kts | 2° |
| 2026-05-06 03:11 | 35.06118 | -89.96373 | 283 ft | 0 kts | 2° |